Time;durP1;ratioP1;P1;durP2;ratioP2;P2;SDS_P1;SDS_P2;PMS_P1;PMS_P2;Temp;Humidity;BMP_temperature;BMP_pressure;BME280_temperature;BME280_humidity;BME280_pressure;Samples;Min_cycle;Max_cycle;Signal;HPM_P1;HPM_P2
2024/03/03 00:01:09;;;;;;;4.60;2.60;;;12.10;99.90;;;;;;5038813;28;20039;-33
2024/03/03 00:03:37;;;;;;;3.25;2.50;;;12.10;99.90;;;;;;5039172;28;20033;-36
2024/03/03 00:06:03;;;;;;;4.10;2.17;;;12.10;99.90;;;;;;5038992;28;20051;-35
2024/03/03 00:08:29;;;;;;;3.78;2.72;;;12.10;99.90;;;;;;5039692;28;20029;-32
2024/03/03 00:10:54;;;;;;;3.75;2.60;;;12.10;99.90;;;;;;5038465;28;20498;-33
2024/03/03 00:13:24;;;;;;;3.17;2.55;;;12.10;99.90;;;;;;5039277;28;20131;-33
2024/03/03 00:15:50;;;;;;;3.35;2.28;;;12.10;99.90;;;;;;5038448;28;20913;-34
2024/03/03 00:18:18;;;;;;;3.58;2.50;;;12.10;99.90;;;;;;5037236;28;20047;-31
2024/03/03 00:20:44;;;;;;;2.83;2.50;;;12.10;99.90;;;;;;5038365;28;20166;-35
2024/03/03 00:23:12;;;;;;;3.00;2.30;;;12.10;99.90;;;;;;5038735;28;20021;-33
2024/03/03 00:25:38;;;;;;;3.20;2.50;;;12.20;99.90;;;;;;5039317;28;20029;-36
2024/03/03 00:28:04;;;;;;;3.03;2.60;;;12.20;99.90;;;;;;5039446;28;20021;-33
2024/03/03 00:30:30;;;;;;;4.53;3.00;;;12.20;99.90;;;;;;5039273;28;20036;-33
2024/03/03 00:32:55;;;;;;;4.85;3.10;;;12.10;99.90;;;;;;5038192;28;20119;-34
2024/03/03 00:35:21;;;;;;;4.18;3.40;;;12.20;99.90;;;;;;5039086;28;20182;-36
2024/03/03 00:37:47;;;;;;;3.95;3.40;;;12.20;99.90;;;;;;5039051;28;20056;-36
2024/03/03 00:40:12;;;;;;;4.20;3.45;;;12.10;99.90;;;;;;5039318;28;20087;-34
2024/03/03 00:42:38;;;;;;;4.22;3.28;;;12.10;99.90;;;;;;5038500;28;20558;-35
2024/03/03 00:45:07;;;;;;;4.60;3.45;;;12.10;99.90;;;;;;5039548;28;20033;-37
2024/03/03 00:47:33;;;;;;;4.53;3.58;;;12.00;99.90;;;;;;5038653;28;20025;-33
2024/03/03 00:49:58;;;;;;;3.85;3.42;;;12.00;99.90;;;;;;5040404;28;20621;-35
2024/03/03 00:52:24;;;;;;;4.15;3.42;;;11.90;99.90;;;;;;5038453;28;20534;-32
2024/03/03 00:54:52;;;;;;;4.03;3.50;;;11.80;99.90;;;;;;5038875;28;20435;-35
2024/03/03 00:57:18;;;;;;;5.20;3.42;;;11.70;99.90;;;;;;5038666;28;20025;-34
2024/03/03 00:59:43;;;;;;;3.92;3.53;;;11.70;99.90;;;;;;5038874;28;20021;-33
2024/03/03 01:02:09;;;;;;;4.65;3.70;;;11.70;99.90;;;;;;5038918;28;20033;-33
2024/03/03 01:04:35;;;;;;;4.45;3.78;;;11.60;99.90;;;;;;5038792;28;20025;-32
2024/03/03 01:07:00;;;;;;;4.70;3.47;;;11.60;99.90;;;;;;5038479;28;20024;-32
2024/03/03 01:09:26;;;;;;;4.53;3.45;;;11.60;99.90;;;;;;5038942;28;20083;-32
2024/03/03 01:11:53;;;;;;;3.50;3.17;;;11.60;99.90;;;;;;5036994;28;20029;-32
2024/03/03 01:14:21;;;;;;;4.65;3.97;;;11.60;99.90;;;;;;5038165;28;20065;-34
2024/03/03 01:16:47;;;;;;;5.78;3.92;;;11.60;99.90;;;;;;5043518;28;20059;-36
2024/03/03 01:19:13;;;;;;;5.13;3.80;;;11.70;99.90;;;;;;5042228;28;20037;-34
2024/03/03 01:21:39;;;;;;;4.05;3.63;;;11.70;99.90;;;;;;5041743;28;20045;-32
2024/03/03 01:24:05;;;;;;;4.53;3.58;;;11.70;99.90;;;;;;5039157;28;20029;-35
2024/03/03 01:26:31;;;;;;;5.32;3.88;;;11.70;99.90;;;;;;5042194;28;20052;-35
2024/03/03 01:28:57;;;;;;;5.38;4.15;;;11.70;99.90;;;;;;5040965;28;20031;-35
2024/03/03 01:31:23;;;;;;;4.07;3.67;;;11.70;99.90;;;;;;5042393;28;20032;-31
2024/03/03 01:33:48;;;;;;;5.38;4.35;;;11.80;99.90;;;;;;5042668;28;20383;-34
2024/03/03 01:36:14;;;;;;;6.95;4.32;;;11.70;99.90;;;;;;5022510;28;20488;-35
2024/03/03 01:38:40;;;;;;;5.43;4.32;;;11.80;99.90;;;;;;5036679;28;20089;-33
2024/03/03 01:41:06;;;;;;;5.55;4.40;;;11.80;99.90;;;;;;5042147;28;20123;-35
2024/03/03 01:43:32;;;;;;;4.35;3.85;;;11.80;99.90;;;;;;5041621;28;20029;-36
2024/03/03 01:45:57;;;;;;;7.25;4.55;;;11.80;99.90;;;;;;5039767;28;20392;-32
2024/03/03 01:48:24;;;;;;;5.30;3.95;;;11.80;99.90;;;;;;5040464;28;20140;-33
2024/03/03 01:50:50;;;;;;;6.00;4.22;;;11.80;99.90;;;;;;5041561;28;20021;-36
2024/03/03 01:53:16;;;;;;;4.90;4.38;;;11.80;99.90;;;;;;5042493;28;20044;-34
2024/03/03 01:55:43;;;;;;;4.35;3.60;;;11.80;99.90;;;;;;5041402;28;20041;-34
2024/03/03 01:58:10;;;;;;;4.53;3.55;;;11.80;99.90;;;;;;5041267;28;20025;-33
2024/03/03 02:00:36;;;;;;;5.18;4.05;;;11.80;99.90;;;;;;5041763;28;20689;-35
2024/03/03 02:03:06;;;;;;;5.38;4.25;;;11.80;99.90;;;;;;5041013;28;20021;-34
2024/03/03 02:05:34;;;;;;;5.25;3.72;;;11.80;99.90;;;;;;5040259;28;20029;-35
2024/03/03 02:08:00;;;;;;;4.63;3.88;;;11.70;99.90;;;;;;5041996;28;20135;-36
2024/03/03 02:10:26;;;;;;;4.60;3.70;;;11.70;99.90;;;;;;5040034;28;20194;-35
2024/03/03 02:12:52;;;;;;;4.18;3.67;;;11.70;99.90;;;;;;5041612;28;20094;-35
2024/03/03 02:15:18;;;;;;;4.55;3.88;;;11.60;99.90;;;;;;5041047;28;20036;-34
2024/03/03 02:17:47;;;;;;;5.68;3.90;;;11.60;99.90;;;;;;5041946;28;20048;-34
2024/03/03 02:20:12;;;;;;;4.43;3.83;;;11.60;99.90;;;;;;5041069;28;20112;-36
2024/03/03 02:22:38;;;;;;;5.18;4.30;;;11.60;99.90;;;;;;5039967;28;20028;-37
2024/03/03 02:25:04;;;;;;;5.13;4.18;;;11.60;99.90;;;;;;5040592;28;20036;-34
2024/03/03 02:27:33;;;;;;;4.63;3.90;;;11.60;99.90;;;;;;5039595;28;20107;-32
2024/03/03 02:29:58;;;;;;;4.88;3.90;;;11.60;99.90;;;;;;5040419;28;20735;-34
2024/03/03 02:32:24;;;;;;;5.65;4.70;;;11.60;99.90;;;;;;5040359;28;20036;-34
2024/03/03 02:34:49;;;;;;;7.85;5.13;;;11.60;99.90;;;;;;5040626;28;20490;-33
2024/03/03 02:37:17;;;;;;;6.68;4.82;;;11.50;99.90;;;;;;5040803;28;20391;-36
2024/03/03 02:39:43;;;;;;;7.10;5.13;;;11.50;99.90;;;;;;5040909;28;20373;-35
2024/03/03 02:42:09;;;;;;;6.75;5.03;;;11.50;99.90;;;;;;5040794;28;20178;-36
2024/03/03 02:44:34;;;;;;;6.63;5.15;;;11.50;99.90;;;;;;5039384;28;20471;-34
2024/03/03 02:47:00;;;;;;;7.53;5.68;;;11.40;99.90;;;;;;5040189;28;20024;-36
2024/03/03 02:49:26;;;;;;;7.05;5.22;;;11.40;99.90;;;;;;5039991;28;20568;-34
2024/03/03 02:51:51;;;;;;;8.27;5.90;;;11.40;99.90;;;;;;5039778;28;20025;-34
2024/03/03 02:54:17;;;;;;;7.72;5.65;;;11.30;99.90;;;;;;5040034;28;20139;-39
2024/03/03 02:56:42;;;;;;;7.68;5.47;;;11.30;99.90;;;;;;5040558;28;20480;-33
2024/03/03 02:59:08;;;;;;;6.80;5.15;;;11.30;99.90;;;;;;5038173;28;20039;-36
2024/03/03 03:01:34;;;;;;;7.72;4.82;;;11.30;99.90;;;;;;5040395;28;20032;-30
2024/03/03 03:03:59;;;;;;;6.75;5.25;;;11.20;99.90;;;;;;5040519;28;20025;-35
2024/03/03 03:06:25;;;;;;;7.22;5.00;;;11.20;99.90;;;;;;5038618;28;20047;-36
2024/03/03 03:08:50;;;;;;;6.65;4.95;;;11.20;99.90;;;;;;5040777;28;20025;-33
2024/03/03 03:11:16;;;;;;;5.03;4.50;;;11.20;99.90;;;;;;5039893;28;20103;-37
2024/03/03 03:13:45;;;;;;;5.38;4.60;;;11.10;99.90;;;;;;5039566;28;20107;-35
2024/03/03 03:16:11;;;;;;;7.68;4.57;;;11.10;99.90;;;;;;5040232;28;20560;-34
2024/03/03 03:18:36;;;;;;;5.47;4.15;;;11.00;99.90;;;;;;5040101;28;20032;-35
2024/03/03 03:21:08;;;;;;;6.22;4.70;;;11.00;99.90;;;;;;5039896;28;20024;-36
2024/03/03 03:23:34;;;;;;;4.80;4.30;;;11.00;99.90;;;;;;5029561;28;20029;-34
2024/03/03 03:26:00;;;;;;;6.13;4.38;;;10.90;99.90;;;;;;5039436;28;20499;-35
2024/03/03 03:28:28;;;;;;;5.55;4.65;;;10.90;99.90;;;;;;5036662;28;20061;-31
2024/03/03 03:30:54;;;;;;;5.45;4.50;;;10.90;99.90;;;;;;5039893;28;20136;-35
2024/03/03 03:33:20;;;;;;;6.63;4.70;;;10.80;99.90;;;;;;5039434;28;20028;-35
2024/03/03 03:35:46;;;;;;;5.47;4.55;;;10.80;99.90;;;;;;5039339;28;20047;-33
2024/03/03 03:38:14;;;;;;;6.82;4.97;;;10.80;99.90;;;;;;5039452;28;20120;-36
2024/03/03 03:40:40;;;;;;;5.03;4.53;;;10.80;99.90;;;;;;5039740;28;20761;-35
2024/03/03 03:43:09;;;;;;;6.60;5.18;;;10.80;99.90;;;;;;5039130;28;20029;-31
2024/03/03 03:45:34;;;;;;;5.85;4.35;;;10.70;99.90;;;;;;5020023;28;20029;-31
2024/03/03 03:48:00;;;;;;;4.93;4.40;;;10.70;99.90;;;;;;5033893;28;20525;-29
2024/03/03 03:50:25;;;;;;;6.97;4.70;;;10.80;99.90;;;;;;5037726;28;20025;-33
2024/03/03 03:52:54;;;;;;;6.38;4.97;;;10.80;99.90;;;;;;5039742;28;20017;-33
2024/03/03 03:55:19;;;;;;;5.88;4.65;;;10.70;99.90;;;;;;5038506;28;20116;-34
2024/03/03 03:57:45;;;;;;;5.40;4.60;;;10.70;99.90;;;;;;5039849;28;20426;-37
2024/03/03 04:00:11;;;;;;;5.25;4.55;;;10.70;99.90;;;;;;5040072;28;20162;-35
2024/03/03 04:02:36;;;;;;;6.60;5.15;;;10.70;99.90;;;;;;5038826;28;20043;-34
2024/03/03 04:05:04;;;;;;;5.65;4.85;;;10.70;99.90;;;;;;5039978;28;20025;-32
2024/03/03 04:07:33;;;;;;;5.57;4.35;;;10.70;99.90;;;;;;5038993;28;20032;-36
2024/03/03 04:09:58;;;;;;;6.30;5.10;;;10.70;99.90;;;;;;5039157;28;20091;-35
2024/03/03 04:12:24;;;;;;;6.97;5.15;;;10.70;99.90;;;;;;5036683;28;20029;-33
2024/03/03 04:14:52;;;;;;;5.93;4.93;;;10.60;99.90;;;;;;5039033;28;20092;-35
2024/03/03 04:17:18;;;;;;;5.78;4.80;;;10.60;99.90;;;;;;5038674;28;20025;-31
2024/03/03 04:19:43;;;;;;;6.28;5.20;;;10.60;99.90;;;;;;5039276;28;20032;-33
2024/03/03 04:22:10;;;;;;;6.18;5.55;;;10.60;99.90;;;;;;5039662;28;20033;-34
2024/03/03 04:24:37;;;;;;;7.13;5.22;;;10.50;99.90;;;;;;5038444;28;20359;-33
2024/03/03 04:27:03;;;;;;;6.43;4.78;;;10.50;99.90;;;;;;5039495;28;20029;-32
2024/03/03 04:29:30;;;;;;;6.03;4.70;;;10.50;99.90;;;;;;5038624;28;20507;-33
2024/03/03 04:31:55;;;;;;;6.25;5.00;;;10.50;99.90;;;;;;5039016;28;20025;-31
2024/03/03 04:34:25;;;;;;;6.70;5.75;;;10.50;99.90;;;;;;5037241;28;20859;-36
2024/03/03 04:36:50;;;;;;;6.20;5.35;;;10.50;99.90;;;;;;5039316;28;20063;-33
2024/03/03 04:39:16;;;;;;;6.28;5.43;;;10.40;99.90;;;;;;5037862;28;20044;-34
2024/03/03 04:41:42;;;;;;;6.38;5.28;;;10.40;99.90;;;;;;5038820;28;20075;-36
2024/03/03 04:44:11;;;;;;;6.82;4.85;;;10.40;99.90;;;;;;5038744;28;20503;-34
2024/03/03 04:46:36;;;;;;;6.65;5.53;;;10.40;99.90;;;;;;5038386;28;20083;-35
2024/03/03 04:49:02;;;;;;;6.97;5.20;;;10.40;99.90;;;;;;5037435;28;20025;-34
2024/03/03 04:51:28;;;;;;;6.82;5.30;;;10.30;99.90;;;;;;5041225;28;20037;-36
2024/03/03 04:53:54;;;;;;;6.00;4.97;;;10.30;99.90;;;;;;5043281;28;20021;-36
2024/03/03 04:56:20;;;;;;;7.03;5.57;;;10.30;99.90;;;;;;5042530;28;20087;-32
2024/03/03 04:58:46;;;;;;;6.10;4.78;;;10.30;99.90;;;;;;5042666;28;20029;-36
2024/03/03 05:01:12;;;;;;;5.88;5.18;;;10.20;99.90;;;;;;5042292;28;20033;-31
2024/03/03 05:03:38;;;;;;;6.00;4.43;;;10.30;99.90;;;;;;5042278;28;20036;-30
2024/03/03 05:06:04;;;;;;;6.63;4.90;;;10.30;99.90;;;;;;5040111;28;20033;-34
2024/03/03 05:08:29;;;;;;;6.25;5.18;;;10.30;99.90;;;;;;5042443;28;20024;-32
2024/03/03 05:10:55;;;;;;;6.00;5.03;;;10.30;99.90;;;;;;5042387;28;20037;-32
2024/03/03 05:13:20;;;;;;;5.07;4.57;;;10.30;99.90;;;;;;5040993;28;20053;-31
2024/03/03 05:15:46;;;;;;;5.75;5.00;;;10.30;99.90;;;;;;5042559;28;20127;-33
2024/03/03 05:18:12;;;;;;;6.13;5.03;;;10.30;99.90;;;;;;5042534;28;20024;-34
2024/03/03 05:20:37;;;;;;;6.70;5.18;;;10.30;99.90;;;;;;5040798;28;20834;-35
2024/03/03 05:23:03;;;;;;;5.47;4.90;;;10.30;99.90;;;;;;5042797;28;20102;-34
2024/03/03 05:25:28;;;;;;;7.65;5.80;;;10.30;99.90;;;;;;5041550;28;20013;-32
2024/03/03 05:27:54;;;;;;;6.85;5.50;;;10.30;99.90;;;;;;5040726;28;20035;-32
2024/03/03 05:30:20;;;;;;;6.40;5.40;;;10.30;99.90;;;;;;5041478;28;20741;-34
2024/03/03 05:32:45;;;;;;;5.78;4.65;;;10.30;99.90;;;;;;5041657;28;20033;-36
2024/03/03 05:35:11;;;;;;;6.53;4.85;;;10.20;99.90;;;;;;5040694;28;20044;-32
2024/03/03 05:37:36;;;;;;;5.45;4.90;;;10.20;99.90;;;;;;5040000;28;20013;-34
2024/03/03 05:40:02;;;;;;;6.15;5.10;;;10.20;99.90;;;;;;5041268;28;20029;-34
2024/03/03 05:42:27;;;;;;;5.63;4.70;;;10.20;99.90;;;;;;5039022;28;20025;-35
2024/03/03 05:44:53;;;;;;;5.72;4.68;;;10.20;99.90;;;;;;5039945;28;20033;-34
2024/03/03 05:47:19;;;;;;;4.60;4.13;;;10.20;99.90;;;;;;5039275;28;20028;-33
2024/03/03 05:49:44;;;;;;;5.10;4.43;;;10.20;99.90;;;;;;5040128;28;20053;-31
2024/03/03 05:52:10;;;;;;;5.45;4.55;;;10.20;99.90;;;;;;5041515;28;20029;-34
2024/03/03 05:54:35;;;;;;;6.47;5.22;;;10.20;99.90;;;;;;5041295;28;20028;-35
2024/03/03 05:57:01;;;;;;;7.53;5.30;;;10.10;99.90;;;;;;5040823;28;20597;-33
2024/03/03 05:59:27;;;;;;;6.53;5.38;;;10.10;99.90;;;;;;5041495;28;20498;-34
2024/03/03 06:01:54;;;;;;;5.95;5.15;;;10.10;99.90;;;;;;5040198;28;20029;-33
2024/03/03 06:04:19;;;;;;;7.05;5.35;;;10.10;99.90;;;;;;5041611;28;20020;-35
2024/03/03 06:06:45;;;;;;;5.95;5.35;;;10.10;99.90;;;;;;5040489;28;20045;-35
2024/03/03 06:09:15;;;;;;;6.25;4.93;;;10.10;99.90;;;;;;5040275;28;20032;-36
2024/03/03 06:11:42;;;;;;;6.95;5.50;;;10.10;99.90;;;;;;5041273;28;20021;-34
2024/03/03 06:14:14;;;;;;;7.45;5.70;;;10.10;99.90;;;;;;5040061;28;20075;-34
2024/03/03 06:16:40;;;;;;;7.47;6.00;;;10.20;99.90;;;;;;5039918;28;20059;-31
2024/03/03 06:19:12;;;;;;;7.78;6.03;;;10.20;99.90;;;;;;5041040;28;20036;-36
2024/03/03 06:21:38;;;;;;;8.10;6.37;;;10.10;99.90;;;;;;5040876;28;20554;-37
2024/03/03 06:24:03;;;;;;;7.53;6.05;;;10.10;99.90;;;;;;5040624;28;20025;-36
2024/03/03 06:26:30;;;;;;;8.05;6.47;;;10.20;99.90;;;;;;5039675;28;20024;-34
2024/03/03 06:28:56;;;;;;;8.25;6.18;;;10.10;99.90;;;;;;5040924;28;20033;-34
2024/03/03 06:31:22;;;;;;;7.57;6.35;;;10.20;99.90;;;;;;5040720;28;20044;-34
2024/03/03 06:33:47;;;;;;;7.00;6.18;;;10.10;99.90;;;;;;5040792;28;20021;-35
2024/03/03 06:36:19;;;;;;;9.18;6.75;;;10.20;99.90;;;;;;5039507;28;20041;-35
2024/03/03 06:38:46;;;;;;;8.45;6.57;;;10.20;99.90;;;;;;5039939;28;20863;-33
2024/03/03 06:41:15;;;;;;;8.55;6.28;;;10.10;99.90;;;;;;5040243;28;20060;-30
2024/03/03 06:43:44;;;;;;;6.57;5.55;;;10.20;99.90;;;;;;5040224;28;20031;-31
2024/03/03 06:46:10;;;;;;;8.25;6.43;;;10.20;99.90;;;;;;5038593;28;20037;-35
2024/03/03 06:48:39;;;;;;;6.05;5.13;;;10.20;99.90;;;;;;5040182;28;20029;-34
2024/03/03 06:51:06;;;;;;;8.00;6.35;;;10.20;99.90;;;;;;5039119;28;20607;-32
2024/03/03 06:53:39;;;;;;;8.70;6.15;;;10.20;99.90;;;;;;5040846;28;20025;-34
2024/03/03 06:56:13;;;;;;;6.60;5.88;;;10.20;99.90;;;;;;5040754;28;20037;-33
2024/03/03 06:58:39;;;;;;;8.55;7.03;;;10.20;99.90;;;;;;5039676;28;20506;-36
2024/03/03 07:01:06;;;;;;;7.72;6.25;;;10.30;99.90;;;;;;5040286;28;20033;-34
2024/03/03 07:06:18;;;;;;;8.82;6.00;;;10.30;99.90;;;;;;5038486;28;20092;-33
2024/03/03 07:08:44;;;;;;;5.70;5.05;;;10.30;99.90;;;;;;5040640;28;20021;-32
2024/03/03 07:11:09;;;;;;;6.70;5.43;;;10.40;99.90;;;;;;5039640;28;20063;-35
2024/03/03 07:13:35;;;;;;;6.20;5.30;;;10.40;99.90;;;;;;5037670;28;20140;-32
2024/03/03 07:16:00;;;;;;;6.93;5.55;;;10.40;99.90;;;;;;5039325;28;20045;-37
2024/03/03 07:18:26;;;;;;;6.47;4.78;;;10.50;99.90;;;;;;5039928;28;20098;-33
2024/03/03 07:20:51;;;;;;;8.05;5.47;;;10.40;99.90;;;;;;5039336;28;20119;-34
2024/03/03 07:23:17;;;;;;;8.57;5.85;;;10.50;99.90;;;;;;5040227;28;20033;-34
2024/03/03 07:25:42;;;;;;;9.10;6.95;;;10.50;99.90;;;;;;5039728;28;20064;-35
2024/03/03 07:28:08;;;;;;;9.07;6.95;;;10.50;99.90;;;;;;5039255;28;20045;-33
2024/03/03 07:30:33;;;;;;;9.23;7.00;;;10.50;99.90;;;;;;5039453;28;20043;-31
2024/03/03 07:32:59;;;;;;;8.95;7.15;;;10.50;99.90;;;;;;5039247;28;20033;-35
2024/03/03 07:35:25;;;;;;;8.73;6.30;;;10.40;99.90;;;;;;5038882;28;20051;-34
2024/03/03 07:37:51;;;;;;;7.45;6.40;;;10.40;99.90;;;;;;5040985;28;20086;-31
2024/03/03 07:40:17;;;;;;;6.78;5.90;;;10.40;99.90;;;;;;5039031;28;20029;-35
2024/03/03 07:42:43;;;;;;;7.47;5.97;;;10.40;99.90;;;;;;5039883;28;20824;-34
2024/03/03 07:45:09;;;;;;;8.05;6.07;;;10.50;99.90;;;;;;5039380;28;20101;-33
2024/03/03 07:47:35;;;;;;;8.27;6.30;;;10.50;99.90;;;;;;5038776;28;20130;-34
2024/03/03 07:50:01;;;;;;;8.13;5.65;;;10.50;99.90;;;;;;5039501;28;20131;-35
2024/03/03 07:52:26;;;;;;;9.52;6.57;;;10.60;99.90;;;;;;5039641;28;20021;-34
2024/03/03 07:54:52;;;;;;;7.88;7.03;;;10.60;99.90;;;;;;5038156;28;20021;-32
2024/03/03 07:57:17;;;;;;;10.15;6.82;;;10.60;99.90;;;;;;5039644;28;20122;-33
2024/03/03 07:59:44;;;;;;;8.15;6.63;;;10.60;99.90;;;;;;5039503;28;20025;-34
2024/03/03 08:02:09;;;;;;;7.43;5.45;;;10.60;99.90;;;;;;5037763;28;20278;-34
2024/03/03 08:04:35;;;;;;;7.05;4.80;;;10.70;99.90;;;;;;5039365;28;20476;-31
2024/03/03 08:07:00;;;;;;;6.13;4.90;;;10.70;99.90;;;;;;5039306;28;20036;-36
2024/03/03 08:09:26;;;;;;;6.90;5.00;;;10.80;99.90;;;;;;5036785;28;20515;-30
2024/03/03 08:11:52;;;;;;;5.25;4.53;;;10.80;99.90;;;;;;5039055;28;20068;-32
2024/03/03 08:14:17;;;;;;;5.20;4.45;;;10.80;99.90;;;;;;5037997;28;20056;-35
2024/03/03 08:16:43;;;;;;;4.97;4.25;;;10.90;99.90;;;;;;5039091;28;20036;-33
2024/03/03 08:19:09;;;;;;;5.25;4.07;;;11.00;99.90;;;;;;5039497;28;20025;-33
2024/03/03 08:21:34;;;;;;;5.18;4.25;;;11.00;99.90;;;;;;5039211;28;20031;-33
2024/03/03 08:24:00;;;;;;;5.90;4.55;;;11.20;99.90;;;;;;5040130;28;20036;-32
2024/03/03 08:26:25;;;;;;;5.13;4.63;;;11.20;99.90;;;;;;5042866;28;20032;-34
2024/03/03 08:28:52;;;;;;;7.63;5.80;;;11.40;99.90;;;;;;5043991;28;20021;-32
2024/03/03 08:31:18;;;;;;;8.73;6.45;;;11.40;99.90;;;;;;5042514;28;20032;-36
2024/03/03 08:33:44;;;;;;;7.95;6.53;;;11.50;99.90;;;;;;5042896;28;20028;-35
2024/03/03 08:36:10;;;;;;;8.10;5.85;;;11.50;99.90;;;;;;5042415;28;20045;-37
2024/03/03 08:38:36;;;;;;;6.32;5.32;;;11.60;99.90;;;;;;5041989;28;20812;-34
2024/03/03 08:41:03;;;;;;;7.82;6.22;;;11.70;99.90;;;;;;5042670;28;20079;-36
2024/03/03 08:43:29;;;;;;;8.00;5.97;;;11.70;99.90;;;;;;5041866;28;20392;-33
2024/03/03 08:45:55;;;;;;;7.53;5.95;;;11.70;99.90;;;;;;5042398;28;20104;-34
2024/03/03 08:48:21;;;;;;;7.47;5.82;;;11.70;99.90;;;;;;5041767;28;20047;-31
2024/03/03 08:50:47;;;;;;;9.65;6.85;;;11.70;99.90;;;;;;5042554;28;20156;-36
2024/03/03 08:53:13;;;;;;;8.85;7.13;;;11.80;99.90;;;;;;5042012;28;20025;-35
2024/03/03 08:55:39;;;;;;;8.38;7.43;;;11.80;99.90;;;;;;5041851;28;20111;-33
2024/03/03 08:58:05;;;;;;;8.93;6.72;;;11.80;99.90;;;;;;5040232;28;20621;-36
2024/03/03 09:00:30;;;;;;;11.32;6.18;;;11.80;99.90;;;;;;5042290;28;20032;-32
2024/03/03 09:02:56;;;;;;;6.65;5.70;;;11.80;99.90;;;;;;5041892;28;20107;-33
2024/03/03 09:05:22;;;;;;;8.15;6.18;;;11.90;99.90;;;;;;5040158;28;20041;-33
2024/03/03 09:07:48;;;;;;;7.72;5.68;;;11.90;99.90;;;;;;5042348;28;20669;-35
2024/03/03 09:10:13;;;;;;;6.53;5.43;;;11.90;99.90;;;;;;5041977;28;20077;-34
2024/03/03 09:12:39;;;;;;;6.25;5.20;;;11.90;99.90;;;;;;5041740;28;20484;-31
2024/03/03 09:15:06;;;;;;;7.43;5.97;;;11.90;99.90;;;;;;5042062;28;20033;-34
2024/03/03 09:17:31;;;;;;;6.50;5.25;;;11.90;99.90;;;;;;5040646;28;20797;-33
2024/03/03 09:19:57;;;;;;;6.93;5.78;;;11.90;99.90;;;;;;5042063;28;20017;-31
2024/03/03 09:22:22;;;;;;;7.47;5.60;;;11.90;99.90;;;;;;5042066;28;20086;-32
2024/03/03 09:24:48;;;;;;;8.20;5.88;;;11.90;99.90;;;;;;5041710;28;20025;-35
2024/03/03 09:27:14;;;;;;;7.97;6.10;;;11.90;99.90;;;;;;5040456;28;20637;-35
2024/03/03 09:29:40;;;;;;;7.85;6.50;;;12.00;99.90;;;;;;5039629;28;20440;-36
2024/03/03 09:32:06;;;;;;;8.05;6.47;;;12.00;99.90;;;;;;5041063;28;20033;-33
2024/03/03 09:34:31;;;;;;;8.20;6.13;;;12.00;99.90;;;;;;5039051;28;20060;-32
2024/03/03 09:36:58;;;;;;;7.53;5.72;;;12.10;99.90;;;;;;5040874;28;20051;-31
2024/03/03 09:39:24;;;;;;;6.90;5.65;;;12.20;99.90;;;;;;5041027;28;20095;-34
2024/03/03 09:41:56;;;;;;;6.15;5.22;;;12.30;99.90;;;;;;5040857;28;20029;-36
2024/03/03 09:44:27;;;;;;;6.70;5.55;;;12.40;99.90;;;;;;5040194;28;20805;-33
2024/03/03 09:46:53;;;;;;;8.40;6.13;;;12.50;99.90;;;;;;5040697;28;20033;-36
2024/03/03 09:49:20;;;;;;;7.28;5.47;;;12.60;99.90;;;;;;5040349;28;20603;-34
2024/03/03 09:51:47;;;;;;;7.50;5.45;;;12.70;99.90;;;;;;5041553;28;20110;-36
2024/03/03 09:54:18;;;;;;;8.02;5.68;;;12.80;99.90;;;;;;5040057;28;20021;-35
2024/03/03 09:56:46;;;;;;;7.53;5.77;;;12.90;99.90;;;;;;5041581;28;20146;-32
2024/03/03 09:59:13;;;;;;;7.93;5.95;;;13.00;99.90;;;;;;5041193;28;20021;-35
2024/03/03 10:01:41;;;;;;;7.75;6.10;;;13.00;99.90;;;;;;5040310;28;20630;-36
2024/03/03 10:04:08;;;;;;;7.25;5.30;;;13.00;99.90;;;;;;5040943;28;20017;-35
2024/03/03 10:06:38;;;;;;;7.93;6.15;;;13.10;99.90;;;;;;5040026;28;20047;-36
2024/03/03 10:09:09;;;;;;;7.07;5.80;;;13.10;99.90;;;;;;5040047;28;20480;-37
2024/03/03 10:11:37;;;;;;;6.97;6.05;;;13.30;99.90;;;;;;5039611;28;20028;-33
2024/03/03 10:14:03;;;;;;;6.38;5.32;;;13.40;99.90;;;;;;5041390;28;20068;-34
2024/03/03 10:16:32;;;;;;;6.05;5.05;;;13.50;99.90;;;;;;5039323;28;20052;-37
2024/03/03 10:19:02;;;;;;;6.30;5.00;;;13.60;99.90;;;;;;5040318;28;20369;-32
2024/03/03 10:21:38;;;;;;;5.68;4.82;;;13.70;99.90;;;;;;5039448;28;20029;-31
2024/03/03 10:24:20;;;;;;;6.55;5.35;;;13.70;99.90;;;;;;5039933;28;20147;-35
2024/03/03 10:26:47;;;;;;;5.67;4.57;;;13.80;99.90;;;;;;5039230;28;20570;-35
2024/03/03 10:29:12;;;;;;;6.47;4.93;;;13.80;99.90;;;;;;5038009;28;20068;-36
2024/03/03 10:31:38;;;;;;;6.97;5.18;;;13.80;99.90;;;;;;5038669;28;20075;-37
2024/03/03 10:34:14;;;;;;;6.18;4.70;;;13.80;99.90;;;;;;5038568;28;20025;-37
2024/03/03 10:36:40;;;;;;;5.47;4.50;;;13.80;99.90;;;;;;5038003;28;20495;-36
2024/03/03 10:39:09;;;;;;;6.38;5.13;;;13.80;99.90;;;;;;5038830;28;20144;-32
2024/03/03 10:41:38;;;;;;;7.07;5.72;;;13.80;99.90;;;;;;5039147;28;20127;-34
2024/03/03 10:44:08;;;;;;;8.60;5.72;;;13.80;99.90;;;;;;5040330;28;20044;-35
2024/03/03 10:46:38;;;;;;;6.50;5.72;;;13.80;99.90;;;;;;5040432;28;20484;-32
2024/03/03 10:49:04;;;;;;;7.88;6.20;;;13.80;99.90;;;;;;5039327;28;20029;-36
2024/03/03 10:51:30;;;;;;;6.75;5.68;;;13.80;99.90;;;;;;5039854;28;20025;-33
2024/03/03 10:53:59;;;;;;;7.10;5.63;;;13.80;99.90;;;;;;5040518;28;20502;-33
2024/03/03 10:56:25;;;;;;;7.38;5.15;;;13.80;99.90;;;;;;5039410;28;20426;-36
2024/03/03 10:58:51;;;;;;;5.53;4.93;;;13.80;99.90;;;;;;5040658;28;20048;-39
2024/03/03 11:01:18;;;;;;;6.38;4.40;;;13.90;99.90;;;;;;5039091;28;20033;-34
2024/03/03 11:03:45;;;;;;;7.93;5.60;;;13.90;99.90;;;;;;5040487;28;20135;-34
2024/03/03 11:06:14;;;;;;;5.97;5.15;;;14.00;99.90;;;;;;5035452;28;20033;-36
2024/03/03 11:08:52;;;;;;;5.70;5.00;;;14.00;99.90;;;;;;5056538;28;20507;-37
2024/03/03 11:11:22;;;;;;;5.18;4.50;;;14.00;99.90;;;;;;5057594;28;20045;-36
2024/03/03 11:14:02;;;;;;;5.03;4.45;;;14.10;99.90;;;;;;5053858;28;20514;-34
2024/03/03 11:16:29;;;;;;;6.05;4.18;;;14.20;99.90;;;;;;5055785;28;20074;-32
2024/03/03 11:19:08;;;;;;;6.45;3.97;;;14.30;99.90;;;;;;5055783;28;20023;-33
2024/03/03 11:21:37;;;;;;;5.70;4.30;;;14.40;99.90;;;;;;5056997;28;20021;-37
2024/03/03 11:24:07;;;;;;;5.35;4.30;;;14.50;99.90;;;;;;5056808;28;20028;-35
2024/03/03 11:26:32;;;;;;;4.85;3.95;;;14.60;99.90;;;;;;5055462;28;20031;-35
2024/03/03 11:28:59;;;;;;;4.95;4.45;;;14.70;99.90;;;;;;5056029;28;20756;-33
2024/03/03 11:31:28;;;;;;;4.90;4.20;;;14.70;99.90;;;;;;5056065;28;20028;-37
2024/03/03 11:33:55;;;;;;;5.55;4.25;;;14.70;99.90;;;;;;5056329;28;20041;-34
2024/03/03 11:36:21;;;;;;;6.45;4.53;;;14.60;99.90;;;;;;5056460;28;20520;-37
2024/03/03 11:38:47;;;;;;;5.38;4.03;;;14.60;99.90;;;;;;5056271;28;20017;-36
2024/03/03 11:41:16;;;;;;;5.78;4.13;;;14.50;99.90;;;;;;5054333;28;20021;-35
2024/03/03 11:43:44;;;;;;;5.30;4.18;;;14.50;99.90;;;;;;5055490;28;20032;-31
2024/03/03 11:46:31;;;;;;;4.20;3.40;;;14.50;99.90;;;;;;5056492;28;20387;-35
2024/03/03 11:48:57;;;;;;;4.90;4.32;;;14.50;99.90;;;;;;5055985;28;20072;-33
2024/03/03 11:51:29;;;;;;;3.63;3.20;;;14.50;99.90;;;;;;5056302;28;20313;-35
2024/03/03 11:54:05;;;;;;;4.03;2.80;;;14.50;99.90;;;;;;5056276;28;20430;-37
2024/03/03 11:56:44;;;;;;;3.38;2.60;;;14.50;99.90;;;;;;5054818;28;20056;-34
2024/03/03 11:59:10;;;;;;;3.05;2.65;;;14.50;99.90;;;;;;5054674;28;20040;-35
2024/03/03 12:01:38;;;;;;;3.60;2.80;;;14.60;99.90;;;;;;5053341;28;20036;-36
2024/03/03 12:04:04;;;;;;;3.00;2.58;;;14.60;99.90;;;;;;5053699;28;20103;-36
2024/03/03 12:06:32;;;;;;;4.47;2.90;;;14.70;99.90;;;;;;5054187;28;20105;-34
2024/03/03 12:09:03;;;;;;;3.95;2.53;;;14.70;99.90;;;;;;5051493;28;20079;-37
2024/03/03 12:11:30;;;;;;;3.03;2.60;;;14.80;99.90;;;;;;5052777;28;20029;-36
2024/03/03 12:14:00;;;;;;;3.70;3.30;;;14.80;99.90;;;;;;5053619;28;20063;-32
2024/03/03 12:16:25;;;;;;;3.08;2.60;;;14.80;99.90;;;;;;5051421;28;20025;-36
2024/03/03 12:18:51;;;;;;;4.00;2.80;;;14.80;99.90;;;;;;5047850;28;20115;-35
2024/03/03 12:21:19;;;;;;;2.92;2.60;;;14.80;99.90;;;;;;5040460;28;20098;-36
2024/03/03 12:23:44;;;;;;;4.97;2.70;;;14.80;99.90;;;;;;5042060;28;20032;-35
2024/03/03 12:26:10;;;;;;;3.92;2.58;;;14.80;99.90;;;;;;5042137;28;20098;-37
2024/03/03 12:28:37;;;;;;;2.97;2.50;;;14.80;99.90;;;;;;5042210;28;20056;-35
2024/03/03 12:31:03;;;;;;;2.97;2.30;;;14.90;99.90;;;;;;5041735;28;20025;-35
2024/03/03 12:33:29;;;;;;;3.42;2.60;;;14.90;99.90;;;;;;5042123;28;20813;-37
2024/03/03 12:35:55;;;;;;;3.17;2.50;;;14.90;99.90;;;;;;5041563;28;20033;-35
2024/03/03 12:38:21;;;;;;;3.85;2.70;;;15.00;99.90;;;;;;5020520;28;20029;-36
2024/03/03 12:40:47;;;;;;;2.88;2.30;;;15.00;99.90;;;;;;5035106;28;20101;-33
2024/03/03 12:43:15;;;;;;;2.88;2.40;;;15.10;99.90;;;;;;5040354;28;20036;-37
2024/03/03 12:45:47;;;;;;;3.05;2.50;;;15.20;99.90;;;;;;5041590;28;20029;-34
2024/03/03 12:48:12;;;;;;;2.50;2.30;;;15.20;99.90;;;;;;5041985;28;20033;-34